Time;durP1;ratioP1;P1;durP2;ratioP2;P2;SDS_P1;SDS_P2;PMS_P1;PMS_P2;Temp;Humidity;BMP_temperature;BMP_pressure;BME280_temperature;BME280_humidity;BME280_pressure;Samples;Min_cycle;Max_cycle;Signal;HPM_P1;HPM_P2
2023/12/02 00:02:32;;;;;;;4.45;2.97;;;7.20;70.70;;;;;;7494033;23;20015;-69
2023/12/02 00:05:33;;;;;;;4.95;3.33;;;7.20;70.70;;;;;;7518750;23;20094;-71
2023/12/02 00:08:34;;;;;;;4.85;2.63;;;7.20;70.60;;;;;;7519289;23;20006;-68
2023/12/02 00:11:35;;;;;;;4.35;3.33;;;7.20;70.80;;;;;;7494133;23;20018;-68
2023/12/02 00:14:36;;;;;;;4.38;2.38;;;7.20;71.00;;;;;;7494113;23;20683;-69
2023/12/02 00:17:37;;;;;;;6.05;3.05;;;7.20;71.00;;;;;;7519430;23;20018;-68
2023/12/02 00:20:38;;;;;;;6.93;3.28;;;7.20;70.90;;;;;;7493061;23;20066;-69
2023/12/02 00:23:43;;;;;;;7.15;3.58;;;7.20;70.90;;;;;;7519655;23;20075;-69
2023/12/02 00:26:43;;;;;;;8.40;3.80;;;7.20;71.10;;;;;;7520006;23;20022;-68
2023/12/02 00:29:44;;;;;;;7.55;3.90;;;7.30;71.20;;;;;;7495744;23;20014;-69
2023/12/02 00:32:46;;;;;;;11.43;4.78;;;7.20;71.20;;;;;;7494452;23;19999;-69
2023/12/02 00:35:47;;;;;;;6.88;4.28;;;7.10;71.20;;;;;;7519741;23;20082;-68
2023/12/02 00:38:48;;;;;;;7.95;4.28;;;7.10;71.20;;;;;;7494241;23;20055;-68
2023/12/02 00:41:49;;;;;;;10.40;4.35;;;7.10;71.50;;;;;;7519367;23;20148;-69
2023/12/02 00:44:50;;;;;;;8.00;4.82;;;7.10;71.60;;;;;;7519359;23;20010;-69
2023/12/02 00:47:51;;;;;;;19.27;6.30;;;7.20;71.60;;;;;;7492897;23;20002;-68
2023/12/02 00:50:54;;;;;;;8.50;4.25;;;7.20;71.80;;;;;;7520553;23;20062;-68
2023/12/02 00:53:57;;;;;;;9.55;4.85;;;7.20;71.80;;;;;;7494042;23;20019;-67
2023/12/02 00:57:00;;;;;;;13.10;5.22;;;7.20;71.80;;;;;;7519777;23;20420;-69
2023/12/02 01:00:03;;;;;;;8.77;5.35;;;7.30;71.70;;;;;;7519437;23;20380;-68
2023/12/02 01:03:06;;;;;;;11.02;5.68;;;7.30;71.70;;;;;;7518964;23;20009;-68
2023/12/02 01:06:08;;;;;;;13.80;7.30;;;7.30;71.60;;;;;;7518559;23;20010;-68
2023/12/02 01:09:08;;;;;;;11.90;5.03;;;7.30;71.40;;;;;;7517685;23;20113;-68
2023/12/02 01:12:09;;;;;;;7.15;5.05;;;7.30;71.50;;;;;;7493748;23;20011;-69
2023/12/02 01:15:10;;;;;;;9.55;3.97;;;7.30;71.40;;;;;;7518383;23;20179;-69
2023/12/02 01:18:11;;;;;;;10.32;5.05;;;7.30;71.50;;;;;;7492338;23;20050;-67
2023/12/02 01:21:12;;;;;;;6.38;3.30;;;7.30;71.50;;;;;;7518235;23;20002;-68
2023/12/02 01:24:14;;;;;;;14.48;3.55;;;7.30;71.50;;;;;;7518618;23;20692;-68
2023/12/02 01:27:15;;;;;;;11.80;5.90;;;7.30;71.20;;;;;;7492528;23;20390;-68
2023/12/02 01:30:16;;;;;;;7.88;4.57;;;7.30;70.80;;;;;;7518534;23;20010;-69
2023/12/02 01:33:17;;;;;;;8.57;4.57;;;7.30;70.80;;;;;;7518302;23;20015;-70
2023/12/02 01:36:18;;;;;;;11.18;5.50;;;7.30;71.00;;;;;;7518935;23;20394;-68
2023/12/02 01:39:19;;;;;;;8.85;4.47;;;7.30;71.00;;;;;;7469878;23;20055;-68
2023/12/02 01:42:20;;;;;;;11.40;5.10;;;7.20;71.10;;;;;;7492014;23;20307;-69
2023/12/02 01:45:21;;;;;;;7.68;3.45;;;7.30;71.20;;;;;;7492485;23;20023;-68
2023/12/02 01:48:26;;;;;;;9.13;5.32;;;7.20;71.30;;;;;;7517860;23;20400;-69
2023/12/02 01:51:28;;;;;;;6.32;3.70;;;7.20;71.10;;;;;;7492772;23;20142;-69
2023/12/02 01:54:30;;;;;;;6.60;3.63;;;7.20;71.20;;;;;;7492250;23;20017;-67
2023/12/02 01:57:32;;;;;;;8.35;4.05;;;7.20;71.20;;;;;;7492931;23;20094;-69
2023/12/02 02:00:32;;;;;;;5.57;3.70;;;7.20;71.30;;;;;;7517772;23;20040;-68
2023/12/02 02:03:33;;;;;;;5.15;3.10;;;7.20;71.80;;;;;;7518161;23;20018;-68
2023/12/02 02:06:34;;;;;;;8.73;4.20;;;7.10;70.90;;;;;;7468549;23;20007;-68
2023/12/02 02:09:47;;;;;;;9.82;4.60;;;7.10;71.10;;;;;;7492363;23;20082;-68
2023/12/02 02:12:48;;;;;;;9.98;4.65;;;7.10;71.40;;;;;;7491844;23;20170;-68
2023/12/02 02:15:49;;;;;;;10.70;4.20;;;7.10;71.60;;;;;;7469371;23;20394;-68
2023/12/02 02:18:49;;;;;;;13.90;3.25;;;7.10;71.80;;;;;;7517463;23;20086;-68
2023/12/02 02:21:53;;;;;;;8.80;4.75;;;7.10;71.70;;;;;;7468782;23;20007;-68
2023/12/02 02:24:54;;;;;;;3.40;2.72;;;7.10;72.20;;;;;;7491902;23;20402;-69
2023/12/02 02:27:56;;;;;;;11.50;4.32;;;7.10;71.80;;;;;;7491359;23;20118;-69
2023/12/02 02:30:57;;;;;;;12.18;5.25;;;7.20;72.00;;;;;;7491705;23;20011;-67
2023/12/02 02:33:58;;;;;;;9.60;4.20;;;7.20;72.00;;;;;;7491972;23;20015;-68
2023/12/02 02:36:59;;;;;;;7.32;3.67;;;7.20;71.90;;;;;;7517919;23;20040;-68
2023/12/02 02:40:01;;;;;;;7.93;4.63;;;7.20;72.00;;;;;;7517766;23;20151;-68
2023/12/02 02:43:02;;;;;;;9.30;4.45;;;7.20;72.00;;;;;;7492413;23;20014;-68
2023/12/02 02:46:03;;;;;;;8.88;4.85;;;7.30;72.20;;;;;;7492630;23;20313;-67
2023/12/02 02:49:04;;;;;;;9.48;4.35;;;7.30;72.20;;;;;;7491904;23;20022;-68
2023/12/02 02:52:05;;;;;;;9.30;5.03;;;7.30;72.10;;;;;;7491855;23;20007;-68
2023/12/02 02:55:06;;;;;;;7.22;3.53;;;7.30;72.20;;;;;;7518210;23;20070;-69
2023/12/02 02:58:06;;;;;;;7.82;3.60;;;7.30;72.20;;;;;;7491587;23;20444;-68
2023/12/02 03:01:07;;;;;;;9.35;3.00;;;7.30;71.90;;;;;;7517710;23;20438;-68
2023/12/02 03:04:08;;;;;;;4.75;2.75;;;7.30;72.00;;;;;;7491928;23;20021;-69
2023/12/02 03:07:09;;;;;;;3.65;2.38;;;7.20;72.10;;;;;;7517256;23;20014;-69
2023/12/02 03:10:10;;;;;;;3.10;1.95;;;7.20;72.10;;;;;;7517680;23;20015;-68
2023/12/02 03:13:11;;;;;;;1.27;0.95;;;7.20;72.00;;;;;;7491539;23;20007;-69
2023/12/02 03:16:12;;;;;;;0.70;0.70;;;7.20;72.00;;;;;;7492207;23;20014;-69
2023/12/02 03:19:13;;;;;;;1.05;0.75;;;7.20;72.00;;;;;;7491904;23;20010;-68
2023/12/02 03:22:15;;;;;;;3.15;1.80;;;7.10;72.00;;;;;;7517474;23;20370;-69
2023/12/02 03:25:17;;;;;;;2.92;1.80;;;7.20;72.10;;;;;;7490453;23;20027;-69
2023/12/02 03:28:19;;;;;;;1.95;1.15;;;7.20;72.10;;;;;;7517327;23;20186;-68
2023/12/02 03:31:20;;;;;;;1.92;0.88;;;7.20;72.10;;;;;;7517049;23;20430;-68
2023/12/02 03:34:21;;;;;;;2.17;1.30;;;7.10;72.00;;;;;;7490627;23;20038;-68
2023/12/02 03:37:22;;;;;;;0.20;0.20;;;7.10;72.10;;;;;;7467875;23;20018;-68
2023/12/02 03:40:23;;;;;;;0.45;0.30;;;7.10;72.30;;;;;;7493000;23;20445;-68
2023/12/02 03:43:24;;;;;;;0.00;0.00;;;7.20;72.70;;;;;;7519899;23;20077;-69
2023/12/02 03:46:28;;;;;;;0.45;0.30;;;7.20;72.80;;;;;;7493948;23;20053;-68
2023/12/02 03:49:29;;;;;;;0.30;0.20;;;7.30;72.70;;;;;;7519405;23;20003;-70
2023/12/02 03:52:30;;;;;;;0.52;0.20;;;7.40;72.60;;;;;;7520077;23;20038;-69
2023/12/02 03:55:31;;;;;;;0.52;0.50;;;7.40;72.40;;;;;;7519287;23;20028;-68
2023/12/02 03:58:32;;;;;;;0.57;0.30;;;7.50;72.30;;;;;;7519549;23;20086;-68
2023/12/02 04:01:32;;;;;;;0.00;0.00;;;7.60;71.90;;;;;;7518764;23;20034;-66
2023/12/02 04:04:33;;;;;;;0.10;0.10;;;7.50;71.70;;;;;;7518404;23;20018;-67
2023/12/02 04:07:38;;;;;;;0.20;0.20;;;7.60;71.70;;;;;;7493226;23;20044;-69
2023/12/02 04:10:39;;;;;;;1.80;0.17;;;7.50;71.40;;;;;;7492700;23;20114;-70
2023/12/02 04:13:40;;;;;;;0.82;0.30;;;7.50;71.40;;;;;;7492299;23;20019;-68
2023/12/02 04:16:41;;;;;;;0.70;0.70;;;7.50;71.70;;;;;;7518746;23;20022;-68
2023/12/02 04:19:42;;;;;;;0.60;0.43;;;7.50;71.60;;;;;;7518557;23;20018;-68
2023/12/02 04:22:43;;;;;;;0.90;0.52;;;7.60;71.50;;;;;;7493128;23;20019;-69
2023/12/02 04:25:44;;;;;;;0.35;0.28;;;7.50;71.40;;;;;;7493877;23;20011;-68
2023/12/02 04:28:45;;;;;;;1.17;0.52;;;7.50;71.30;;;;;;7520303;23;20011;-68
2023/12/02 04:31:46;;;;;;;1.05;0.47;;;7.50;71.30;;;;;;7492653;23;20285;-68
2023/12/02 04:34:47;;;;;;;0.63;0.50;;;7.50;71.30;;;;;;7518100;23;20093;-67
2023/12/02 04:37:47;;;;;;;0.60;0.57;;;7.50;71.20;;;;;;7492534;23;20470;-67
2023/12/02 04:40:48;;;;;;;0.85;0.65;;;7.40;71.10;;;;;;7519248;23;20330;-69
2023/12/02 04:43:49;;;;;;;1.35;0.52;;;7.30;71.10;;;;;;7492794;23;20386;-67
2023/12/02 04:46:50;;;;;;;4.20;0.90;;;7.40;71.20;;;;;;7518081;23;20007;-68
2023/12/02 04:49:51;;;;;;;1.13;0.80;;;7.40;71.20;;;;;;7491665;23;20015;-68
2023/12/02 04:52:52;;;;;;;0.80;0.80;;;7.40;71.30;;;;;;7491892;23;20081;-68
2023/12/02 04:55:53;;;;;;;0.63;0.63;;;7.30;71.40;;;;;;7492763;23;20027;-68
2023/12/02 04:58:54;;;;;;;1.83;0.93;;;7.30;72.40;;;;;;7518690;23;20013;-68
2023/12/02 05:01:55;;;;;;;1.77;1.17;;;7.30;72.40;;;;;;7468491;23;20003;-66
2023/12/02 05:04:56;;;;;;;1.52;0.45;;;7.30;71.70;;;;;;7468649;23;20038;-68
2023/12/02 05:07:57;;;;;;;1.90;1.17;;;7.30;71.80;;;;;;7491831;23;20673;-67
2023/12/02 05:10:57;;;;;;;2.10;1.08;;;7.20;71.80;;;;;;7493103;23;20014;-69
2023/12/02 05:13:58;;;;;;;2.08;1.00;;;7.20;71.90;;;;;;7518706;23;20109;-68
2023/12/02 05:16:59;;;;;;;2.17;1.65;;;7.10;72.10;;;;;;7516898;23;20449;-69
2023/12/02 05:20:00;;;;;;;2.05;1.40;;;7.20;72.20;;;;;;7490980;23;20755;-68
2023/12/02 05:23:01;;;;;;;3.13;1.33;;;7.20;72.30;;;;;;7516959;23;20018;-68
2023/12/02 05:26:02;;;;;;;1.63;1.23;;;7.10;72.50;;;;;;7518475;23;20217;-69
2023/12/02 05:29:05;;;;;;;4.93;2.10;;;7.20;72.80;;;;;;7491617;23;20007;-67
2023/12/02 05:32:06;;;;;;;2.08;1.30;;;7.20;72.90;;;;;;7491988;23;20015;-67
2023/12/02 05:35:11;;;;;;;1.75;1.55;;;7.20;72.80;;;;;;7517982;23;20074;-68
2023/12/02 05:38:12;;;;;;;3.20;1.67;;;7.20;72.80;;;;;;7516529;23;20066;-68
2023/12/02 05:41:12;;;;;;;1.15;1.00;;;7.20;72.80;;;;;;7516391;23;20007;-69
2023/12/02 05:44:13;;;;;;;3.90;1.58;;;7.30;72.90;;;;;;7491071;23;20057;-69
2023/12/02 05:47:15;;;;;;;3.13;2.20;;;7.20;72.90;;;;;;7490947;23;20150;-68
2023/12/02 05:50:16;;;;;;;3.15;1.75;;;7.20;72.90;;;;;;7515987;23;20010;-68
2023/12/02 05:53:17;;;;;;;2.92;1.67;;;7.20;72.80;;;;;;7516561;23;20466;-68
2023/12/02 05:56:21;;;;;;;3.38;1.17;;;7.20;72.70;;;;;;7516454;23;20025;-67
2023/12/02 05:59:22;;;;;;;3.47;1.65;;;7.20;72.80;;;;;;7492527;23;20030;-68
2023/12/02 06:02:24;;;;;;;2.65;2.13;;;7.20;72.90;;;;;;7518835;23;20382;-68
2023/12/02 06:05:25;;;;;;;5.13;3.15;;;7.20;72.90;;;;;;7491892;23;20077;-68
2023/12/02 06:08:26;;;;;;;4.80;2.88;;;7.20;73.00;;;;;;7518158;23;20402;-68
2023/12/02 06:11:30;;;;;;;2.70;2.17;;;7.20;72.90;;;;;;7517155;23;20061;-68
2023/12/02 06:14:32;;;;;;;5.63;3.03;;;7.20;73.10;;;;;;7518547;23;20082;-67
2023/12/02 06:17:33;;;;;;;2.88;2.33;;;7.10;73.30;;;;;;7469208;23;20058;-69
2023/12/02 06:20:34;;;;;;;3.90;2.22;;;7.10;73.50;;;;;;7493130;23;20069;-69
2023/12/02 06:23:35;;;;;;;7.63;3.17;;;7.00;73.40;;;;;;7517614;23;20018;-68
2023/12/02 06:26:36;;;;;;;2.85;2.13;;;7.00;73.50;;;;;;7517793;23;20058;-68
2023/12/02 06:29:37;;;;;;;4.43;2.80;;;7.00;73.60;;;;;;7491984;23;20553;-67
2023/12/02 06:32:38;;;;;;;3.63;2.33;;;7.00;73.60;;;;;;7491965;23;20018;-69
2023/12/02 06:35:38;;;;;;;5.80;3.33;;;7.00;73.60;;;;;;7467725;23;20176;-68
2023/12/02 06:38:39;;;;;;;4.90;1.42;;;7.00;73.80;;;;;;7517564;23;20049;-69
2023/12/02 06:41:49;;;;;;;3.08;2.58;;;7.00;73.90;;;;;;7492082;23;20394;-68
2023/12/02 06:44:50;;;;;;;5.03;2.60;;;7.00;73.90;;;;;;7491759;23;20550;-68
2023/12/02 06:47:51;;;;;;;6.20;2.72;;;7.00;73.80;;;;;;7517330;23;20010;-68
2023/12/02 06:50:53;;;;;;;4.05;3.15;;;6.90;73.70;;;;;;7517427;23;20073;-68
2023/12/02 06:53:57;;;;;;;4.22;2.55;;;6.90;73.80;;;;;;7517244;23;20026;-68
2023/12/02 06:56:58;;;;;;;5.13;3.30;;;6.80;73.70;;;;;;7517853;23;20400;-69
2023/12/02 06:59:59;;;;;;;4.03;2.08;;;6.80;74.00;;;;;;7491439;23;20066;-69
2023/12/02 07:03:00;;;;;;;6.28;3.50;;;6.80;74.10;;;;;;7467952;23;20069;-69
2023/12/02 07:06:01;;;;;;;3.28;2.10;;;6.80;74.10;;;;;;7517924;23;20015;-69
2023/12/02 07:09:01;;;;;;;3.45;2.25;;;6.80;74.20;;;;;;7520002;23;20009;-68
2023/12/02 07:12:03;;;;;;;5.95;2.67;;;6.80;74.50;;;;;;7518858;23;20422;-68
2023/12/02 07:15:06;;;;;;;5.63;3.15;;;6.80;74.40;;;;;;7519486;23;20459;-69
2023/12/02 07:18:07;;;;;;;9.35;4.07;;;6.80;74.60;;;;;;7493635;23;20015;-69
2023/12/02 07:21:09;;;;;;;5.68;3.58;;;6.70;74.60;;;;;;7494552;23;20045;-69
2023/12/02 07:24:09;;;;;;;5.82;2.78;;;6.70;74.80;;;;;;7519176;23;20125;-69
2023/12/02 07:27:10;;;;;;;7.78;3.80;;;6.70;75.00;;;;;;7495292;23;20025;-70
2023/12/02 07:30:11;;;;;;;5.32;2.63;;;6.70;75.00;;;;;;7495101;23;20010;-69
2023/12/02 07:33:12;;;;;;;5.40;2.33;;;6.70;75.20;;;;;;7519548;23;20007;-68
2023/12/02 07:36:13;;;;;;;10.05;3.72;;;6.70;75.30;;;;;;7520141;23;20030;-69
2023/12/02 07:39:14;;;;;;;5.25;2.55;;;6.70;75.20;;;;;;7520843;23;20073;-70
2023/12/02 07:42:15;;;;;;;2.80;1.88;;;6.60;75.30;;;;;;7520672;23;20049;-69
2023/12/02 07:45:16;;;;;;;4.22;1.92;;;6.60;75.40;;;;;;7520512;23;20094;-69
2023/12/02 07:48:17;;;;;;;5.32;3.13;;;6.60;75.40;;;;;;7494238;23;20101;-70
2023/12/02 07:51:18;;;;;;;4.28;2.97;;;6.60;75.50;;;;;;7519787;23;20337;-69
2023/12/02 07:54:19;;;;;;;6.75;3.22;;;6.60;75.50;;;;;;7520314;23;20011;-69
2023/12/02 07:57:20;;;;;;;3.50;2.42;;;6.60;75.60;;;;;;7494311;23;20006;-68
2023/12/02 08:00:21;;;;;;;4.88;3.03;;;6.60;75.60;;;;;;7495003;23;20102;-68
2023/12/02 08:03:22;;;;;;;3.50;2.25;;;6.50;75.70;;;;;;7519884;23;20010;-69
2023/12/02 08:06:22;;;;;;;8.30;2.85;;;6.50;75.60;;;;;;7520094;23;20007;-70
2023/12/02 08:09:23;;;;;;;2.83;1.55;;;6.50;75.50;;;;;;7519458;23;20011;-69
2023/12/02 08:12:24;;;;;;;2.97;1.77;;;6.50;76.20;;;;;;7520366;23;20477;-68
2023/12/02 08:15:25;;;;;;;5.10;2.53;;;6.40;75.40;;;;;;7519824;23;20457;-68
2023/12/02 08:18:26;;;;;;;1.38;1.27;;;6.40;75.40;;;;;;7520013;23;20013;-69
2023/12/02 08:21:27;;;;;;;3.75;2.65;;;6.40;75.40;;;;;;7493841;23;20014;-69
2023/12/02 08:24:32;;;;;;;2.78;2.05;;;6.40;75.50;;;;;;7519740;23;20433;-68
2023/12/02 08:27:34;;;;;;;2.05;1.48;;;6.30;75.40;;;;;;7471197;23;20007;-67
2023/12/02 08:30:34;;;;;;;3.65;1.90;;;6.20;75.40;;;;;;7494130;23;20010;-67
2023/12/02 08:33:35;;;;;;;1.85;1.63;;;6.20;75.70;;;;;;7493511;23;20018;-69
2023/12/02 08:36:36;;;;;;;3.50;1.60;;;6.20;75.60;;;;;;7519872;23;20022;-67
2023/12/02 08:39:37;;;;;;;3.17;1.35;;;6.20;75.60;;;;;;7518390;23;20022;-68
2023/12/02 08:42:38;;;;;;;1.50;1.05;;;6.20;75.70;;;;;;7493261;23;20418;-68
2023/12/02 08:45:39;;;;;;;2.60;1.27;;;6.20;75.90;;;;;;7518965;23;20425;-67
2023/12/02 08:48:39;;;;;;;1.38;0.98;;;6.20;76.00;;;;;;7469589;23;20011;-69
2023/12/02 08:51:40;;;;;;;3.78;1.27;;;6.20;76.00;;;;;;7493580;23;20296;-69
2023/12/02 08:54:41;;;;;;;2.50;1.52;;;6.20;75.90;;;;;;7518856;23;20090;-70
2023/12/02 08:57:43;;;;;;;5.07;1.95;;;6.20;75.70;;;;;;7518672;23;20038;-70
2023/12/02 09:00:44;;;;;;;3.60;2.05;;;6.30;76.00;;;;;;7492936;23;20337;-67
2023/12/02 09:03:45;;;;;;;2.38;1.48;;;6.30;75.80;;;;;;7519302;23;20025;-68
2023/12/02 09:06:46;;;;;;;2.28;1.65;;;6.30;75.80;;;;;;7492781;23;20388;-67
2023/12/02 09:09:47;;;;;;;3.40;1.17;;;6.40;75.80;;;;;;7493620;23;20023;-67
2023/12/02 09:12:48;;;;;;;4.82;1.33;;;6.40;75.60;;;;;;7493636;23;20464;-67
2023/12/02 09:15:49;;;;;;;3.42;1.42;;;6.40;75.60;;;;;;7492695;23;20633;-66
2023/12/02 09:18:50;;;;;;;2.85;1.40;;;6.40;75.50;;;;;;7493532;23;20011;-67
2023/12/02 09:21:51;;;;;;;2.60;1.63;;;6.40;75.50;;;;;;7493573;23;20025;-67
2023/12/02 09:24:52;;;;;;;2.15;1.20;;;6.60;75.80;;;;;;7520577;23;20078;-69
2023/12/02 09:28:08;;;;;;;1.33;0.98;;;6.60;75.20;;;;;;7520805;23;20082;-67
2023/12/02 09:31:10;;;;;;;4.95;1.63;;;6.80;75.00;;;;;;7492814;23;20014;-67
2023/12/02 09:34:40;;;;;;;4.40;1.30;;;6.80;74.20;;;;;;7492172;23;20018;-66
2023/12/02 09:38:00;;;;;;;1.67;1.25;;;6.80;73.50;;;;;;7517636;23;20015;-70
2023/12/02 09:41:17;;;;;;;1.60;1.33;;;6.70;74.20;;;;;;7518409;23;20467;-68
2023/12/02 09:44:37;;;;;;;1.38;0.85;;;6.60;73.40;;;;;;7518505;23;20017;-68
2023/12/02 09:47:42;;;;;;;1.58;1.17;;;6.50;73.50;;;;;;7492525;23;20015;-65
2023/12/02 09:51:05;;;;;;;2.67;1.63;;;6.40;73.50;;;;;;7518814;23;20083;-67
2023/12/02 09:54:30;;;;;;;2.22;1.48;;;6.20;73.30;;;;;;7520165;23;20228;-67
2023/12/02 09:57:46;;;;;;;1.70;1.58;;;6.10;73.40;;;;;;7493181;23;20492;-68
2023/12/02 10:01:18;;;;;;;3.10;1.58;;;6.00;73.40;;;;;;7517695;23;20073;-68
2023/12/02 10:04:43;;;;;;;3.17;1.95;;;5.90;73.70;;;;;;7518103;23;20094;-67
2023/12/02 10:08:05;;;;;;;1.10;1.00;;;5.90;74.00;;;;;;7517893;23;20501;-68
2023/12/02 10:11:30;;;;;;;2.05;1.67;;;5.90;75.10;;;;;;7492198;23;20011;-67
2023/12/02 10:14:38;;;;;;;1.70;1.25;;;6.00;74.40;;;;;;7489891;23;20416;-69
2023/12/02 10:17:51;;;;;;;2.83;1.70;;;6.00;74.30;;;;;;7517838;23;20019;-67
2023/12/02 10:21:01;;;;;;;1.27;1.17;;;6.00;74.00;;;;;;7518154;23;20010;-68
2023/12/02 10:24:10;;;;;;;0.90;0.85;;;5.90;73.70;;;;;;7517152;23;20192;-68
2023/12/02 10:27:16;;;;;;;3.25;1.52;;;5.80;73.70;;;;;;7517583;23;20014;-66
2023/12/02 10:30:22;;;;;;;3.70;1.50;;;5.70;73.80;;;;;;7517492;23;20178;-68
2023/12/02 10:33:29;;;;;;;1.98;1.50;;;5.70;74.20;;;;;;7517255;23;20011;-67
2023/12/02 10:36:33;;;;;;;0.60;0.60;;;5.60;74.40;;;;;;7516682;23;20010;-69
2023/12/02 10:39:49;;;;;;;0.93;0.77;;;5.70;74.40;;;;;;7491729;23;20445;-69
2023/12/02 10:43:12;;;;;;;5.22;1.88;;;5.70;74.40;;;;;;7491658;23;20011;-68
2023/12/02 10:46:15;;;;;;;2.15;1.35;;;5.80;74.70;;;;;;7517894;23;20018;-68
2023/12/02 10:49:17;;;;;;;1.60;1.25;;;5.80;74.40;;;;;;7517198;23;20007;-68
2023/12/02 10:52:21;;;;;;;1.40;1.30;;;5.90;74.20;;;;;;7492403;23;20010;-69
2023/12/02 10:55:24;;;;;;;3.88;1.75;;;5.90;74.10;;;;;;7492600;23;20011;-69
2023/12/02 10:58:28;;;;;;;8.45;2.20;;;6.00;73.70;;;;;;7492927;23;20093;-68
2023/12/02 11:01:58;;;;;;;1.83;1.48;;;6.00;73.60;;;;;;7517335;23;20010;-68
2023/12/02 11:05:07;;;;;;;2.20;1.45;;;6.00;73.70;;;;;;7491278;23;20015;-68
2023/12/02 11:08:21;;;;;;;3.40;1.65;;;6.00;73.70;;;;;;7491400;23;20087;-68
2023/12/02 11:11:45;;;;;;;1.77;1.42;;;5.90;73.40;;;;;;7490787;23;20014;-66
2023/12/02 11:14:50;;;;;;;3.63;1.23;;;5.90;73.30;;;;;;7517026;23;20022;-67
2023/12/02 11:18:03;;;;;;;5.47;1.67;;;5.90;73.40;;;;;;7494672;23;20042;-68
2023/12/02 11:21:09;;;;;;;3.25;2.08;;;5.90;73.60;;;;;;7518625;23;20007;-70
2023/12/02 11:24:22;;;;;;;2.20;1.83;;;5.80;73.70;;;;;;7469099;23;20054;-70
2023/12/02 11:27:26;;;;;;;2.92;2.40;;;5.80;73.90;;;;;;7491945;23;20013;-70
2023/12/02 11:30:29;;;;;;;2.60;1.60;;;5.80;74.20;;;;;;7518175;23;20438;-70
2023/12/02 11:34:07;;;;;;;3.50;1.73;;;5.90;74.30;;;;;;7517735;23;20437;-68
2023/12/02 11:37:16;;;;;;;2.80;1.92;;;6.10;74.30;;;;;;7492097;23;20531;-70
2023/12/02 11:40:42;;;;;;;5.65;1.33;;;6.20;73.80;;;;;;7517334;23;20029;-69
2023/12/02 11:44:01;;;;;;;3.50;2.05;;;6.20;73.20;;;;;;7517382;23;20021;-70
2023/12/02 11:47:08;;;;;;;;;;;6.20;73.00;;;;;;7517852;23;20029;-69
2023/12/02 11:50:20;;;;;;;1.15;0.88;;;6.20;72.90;;;;;;7491213;23;20075;-67
2023/12/02 11:53:55;;;;;;;2.53;1.67;;;6.20;72.70;;;;;;7517363;23;20059;-68
2023/12/02 11:57:05;;;;;;;1.42;1.05;;;6.20;72.70;;;;;;7517078;23;20014;-68
2023/12/02 12:00:09;;;;;;;1.67;0.88;;;6.20;72.70;;;;;;7517544;23;19999;-69
2023/12/02 12:03:33;;;;;;;1.42;0.95;;;6.20;72.00;;;;;;7519928;23;20089;-68
2023/12/02 12:06:43;;;;;;;0.98;0.68;;;6.30;72.00;;;;;;7519754;23;20097;-71
2023/12/02 12:10:07;;;;;;;2.55;1.15;;;6.40;72.20;;;;;;7519853;23;20062;-68
2023/12/02 12:13:14;;;;;;;2.78;1.45;;;6.40;71.50;;;;;;7519319;23;20109;-70
2023/12/02 12:16:15;;;;;;;2.28;1.70;;;6.50;71.20;;;;;;7493482;23;20016;-69
2023/12/02 12:19:16;;;;;;;2.20;1.50;;;6.50;71.00;;;;;;7518281;23;20010;-68
2023/12/02 12:22:17;;;;;;;1.17;0.90;;;6.50;70.90;;;;;;7518945;23;20411;-67
2023/12/02 12:25:18;;;;;;;3.90;1.30;;;6.60;70.80;;;;;;7491859;23;20272;-69
2023/12/02 12:28:19;;;;;;;3.35;1.48;;;6.60;70.70;;;;;;7468353;23;20070;-69
2023/12/02 12:31:20;;;;;;;3.20;1.67;;;6.70;70.50;;;;;;7493117;23;20394;-69
2023/12/02 12:34:22;;;;;;;0.93;0.85;;;6.80;70.30;;;;;;7518714;23;20161;-68
2023/12/02 12:37:23;;;;;;;1.98;1.40;;;6.80;70.20;;;;;;7518472;23;20462;-69
2023/12/02 12:40:25;;;;;;;1.42;1.00;;;6.90;69.80;;;;;;7519539;23;20101;-68
2023/12/02 12:43:26;;;;;;;1.83;1.17;;;7.00;69.60;;;;;;7493386;23;20031;-68
2023/12/02 12:46:28;;;;;;;2.20;1.45;;;7.00;69.00;;;;;;7493452;23;20438;-68
2023/12/02 12:49:33;;;;;;;2.33;1.63;;;6.90;68.80;;;;;;7519139;23;19999;-70
2023/12/02 12:52:51;;;;;;;3.92;1.67;;;6.90;68.50;;;;;;7519576;23;20006;-68
2023/12/02 12:56:04;;;;;;;2.47;1.13;;;6.90;68.10;;;;;;7468690;23;20011;-68
2023/12/02 12:59:10;;;;;;;1.63;0.98;;;6.80;68.00;;;;;;7492642;23;20015;-69
2023/12/02 13:02:13;;;;;;;1.40;1.13;;;6.70;68.20;;;;;;7493536;23;20011;-71
2023/12/02 13:05:21;;;;;;;2.60;1.45;;;6.60;68.30;;;;;;7492108;23;20051;-70
2023/12/02 13:08:32;;;;;;;1.90;1.00;;;6.50;68.50;;;;;;7518104;23;20010;-69
2023/12/02 13:11:50;;;;;;;1.65;1.30;;;6.50;68.80;;;;;;7518471;23;20007;-70
2023/12/02 13:15:01;;;;;;;4.17;0.63;;;6.50;69.20;;;;;;7492079;23;20030;-68
2023/12/02 13:18:03;;;;;;;0.75;0.63;;;6.50;69.30;;;;;;7493009;23;20698;-69
2023/12/02 13:21:04;;;;;;;2.88;1.45;;;6.50;68.70;;;;;;7517948;23;20018;-69
2023/12/02 13:24:07;;;;;;;1.30;1.17;;;6.50;68.70;;;;;;7516507;23;20021;-71
2023/12/02 13:27:29;;;;;;;2.75;1.27;;;6.50;68.40;;;;;;7467854;23;20187;-69
2023/12/02 13:30:34;;;;;;;3.65;2.33;;;6.50;67.90;;;;;;7518542;23;20011;-68
2023/12/02 13:34:02;;;;;;;1.25;0.88;;;6.40;67.70;;;;;;7516587;23;20065;-68
2023/12/02 13:37:06;;;;;;;0.88;0.43;;;6.50;67.20;;;;;;7491831;23;20085;-68
2023/12/02 13:40:09;;;;;;;2.83;2.00;;;6.40;67.10;;;;;;7517909;23;20011;-70
2023/12/02 13:43:14;;;;;;;4.13;1.77;;;6.50;66.90;;;;;;7467774;23;20015;-69
2023/12/02 13:46:17;;;;;;;4.00;2.08;;;6.40;66.20;;;;;;7517885;23;20073;-68
2023/12/02 13:49:27;;;;;;;5.75;1.85;;;6.40;66.40;;;;;;7517648;23;20051;-69
2023/12/02 13:53:03;;;;;;;3.20;1.67;;;6.50;66.60;;;;;;7491894;23;20023;-68
2023/12/02 13:56:19;;;;;;;3.75;2.22;;;6.50;66.70;;;;;;7371871;24;20027;-67
2023/12/02 13:59:29;;;;;;;1.73;1.25;;;6.50;66.30;;;;;;7372739;24;20044;-68
2023/12/02 14:02:33;;;;;;;1.98;1.77;;;6.50;66.10;;;;;;7326263;24;20016;-68
2023/12/02 14:05:48;;;;;;;5.43;2.45;;;6.40;66.50;;;;;;7373094;24;20116;-68
2023/12/02 14:08:58;;;;;;;2.47;1.55;;;6.40;67.00;;;;;;7351052;24;20059;-69
2023/12/02 14:12:14;;;;;;;2.80;1.65;;;6.40;67.30;;;;;;7373787;24;20712;-69
2023/12/02 14:15:33;;;;;;;3.63;2.22;;;6.40;67.70;;;;;;7349309;24;20016;-68
2023/12/02 14:18:54;;;;;;;6.20;3.00;;;6.40;67.20;;;;;;7349996;24;20025;-68
2023/12/02 14:21:54;;;;;;;4.78;1.75;;;6.30;66.90;;;;;;7373037;24;20116;-68
2023/12/02 14:25:32;;;;;;;4.85;2.60;;;6.20;66.80;;;;;;7326492;24;20064;-69
2023/12/02 14:28:53;;;;;;;3.73;2.20;;;6.10;66.70;;;;;;7350074;24;20405;-68
2023/12/02 14:32:17;;;;;;;2.58;2.08;;;6.10;66.30;;;;;;7428568;23;20003;-67
2023/12/02 14:35:21;;;;;;;2.00;1.63;;;6.00;66.30;;;;;;7349723;24;20111;-68
2023/12/02 14:38:27;;;;;;;4.63;2.28;;;6.00;66.50;;;;;;7371797;24;20566;-69
2023/12/02 14:41:48;;;;;;;4.05;2.35;;;6.00;66.60;;;;;;7371907;24;20020;-69
2023/12/02 14:44:49;;;;;;;3.10;2.53;;;5.90;66.70;;;;;;7372838;24;20016;-68
2023/12/02 14:48:08;;;;;;;5.53;3.13;;;6.00;66.80;;;;;;7349569;24;20036;-69
2023/12/02 14:51:09;;;;;;;4.72;2.60;;;6.00;66.60;;;;;;7348709;24;20117;-70
2023/12/02 14:54:11;;;;;;;3.05;2.30;;;6.00;66.60;;;;;;7349534;24;20055;-69
2023/12/02 14:57:20;;;;;;;5.95;3.20;;;5.90;66.50;;;;;;7372390;24;20016;-67
2023/12/02 15:00:21;;;;;;;3.67;2.35;;;6.00;66.70;;;;;;7372392;24;20017;-69
2023/12/02 15:03:26;;;;;;;3.65;2.53;;;6.00;66.60;;;;;;7372612;24;20028;-69
2023/12/02 15:06:28;;;;;;;5.07;3.00;;;6.00;66.40;;;;;;7349583;24;20359;-69
2023/12/02 15:09:31;;;;;;;2.75;2.20;;;6.10;66.40;;;;;;7372908;24;20194;-68
2023/12/02 15:12:37;;;;;;;4.75;2.55;;;6.10;66.30;;;;;;7465487;23;20050;-68
2023/12/02 15:15:41;;;;;;;4.63;2.63;;;6.10;66.00;;;;;;7491274;23;20038;-70
2023/12/02 15:18:42;;;;;;;3.72;2.40;;;6.20;65.80;;;;;;7517243;23;20023;-69
2023/12/02 15:22:05;;;;;;;7.20;2.90;;;6.20;65.70;;;;;;7490821;23;20434;-67
2023/12/02 15:25:06;;;;;;;7.78;2.90;;;6.10;65.30;;;;;;7491646;23;20461;-67
2023/12/02 15:28:17;;;;;;;4.88;2.40;;;6.10;64.90;;;;;;7494353;23;20003;-68
2023/12/02 15:31:19;;;;;;;3.90;1.80;;;6.00;65.00;;;;;;7469910;23;20021;-67
2023/12/02 15:34:20;;;;;;;6.25;3.15;;;6.00;65.00;;;;;;7490138;23;20102;-69
2023/12/02 15:37:21;;;;;;;4.15;2.78;;;5.90;65.20;;;;;;7517513;23;20062;-68
2023/12/02 15:40:22;;;;;;;5.35;2.40;;;5.90;65.20;;;;;;7492521;23;20029;-70
2023/12/02 15:43:23;;;;;;;4.78;2.75;;;5.90;65.40;;;;;;7468282;23;20014;-69
2023/12/02 15:46:28;;;;;;;2.85;1.85;;;6.00;65.50;;;;;;7491993;23;20091;-68
2023/12/02 15:49:29;;;;;;;5.70;2.78;;;5.90;65.50;;;;;;7520014;23;20360;-68
2023/12/02 15:52:29;;;;;;;3.90;2.30;;;5.90;65.60;;;;;;7520490;23;20010;-68
2023/12/02 15:55:31;;;;;;;5.47;2.47;;;5.90;65.00;;;;;;7519572;23;20021;-69
2023/12/02 15:58:33;;;;;;;19.85;3.47;;;5.80;64.70;;;;;;7519639;23;20006;-69
2023/12/02 16:01:47;;;;;;;7.65;3.53;;;5.80;64.80;;;;;;7518103;23;20073;-68
2023/12/02 16:04:49;;;;;;;5.05;2.72;;;5.70;65.20;;;;;;7491057;23;20034;-68
2023/12/02 16:07:50;;;;;;;6.82;2.55;;;5.70;65.00;;;;;;7491546;23;20074;-71
2023/12/02 16:11:05;;;;;;;4.72;2.80;;;5.70;65.10;;;;;;7491499;23;20335;-72
2023/12/02 16:14:06;;;;;;;6.10;3.45;;;5.60;65.00;;;;;;7518803;23;20010;-69
2023/12/02 16:17:11;;;;;;;3.15;2.60;;;5.60;65.30;;;;;;7517941;23;20414;-69